KOZS

Camdenton Memorial-Lake Regional Airport

Camdenton, Missouri, USA
METAR KOZS 261255Z AUTO 21004KT 10SM CLR 21/18 A2989 RMK AO2
Observed Flight Rules
May-26 @ 12:55 UTC (34 minutes ago) Visual Flight Rules
Wind Visibility Clouds
210° at 4 knots 10 miles
  • Clear skies
Temperatures Readings
Current 21°C / 70°F
Dewpoint 18°C / 64°F
Humidity 83%
Altimeter 29.89" Hg
Pressure 1012 hPa
Elevation 324
METAR KOZS 261255Z AUTO 21004KT 10SM CLR 21/18 A2989 RMK AO2
Observed Flight Rules
May-26 @ 12:55 UTC
(34 minutes ago)
VFR
Wind Visibility
210° at 4 knots 10 miles
Clouds
  • Clear skies
Temperature Dewpoint
21°C / 70°F 18°C / 64°F
Humidity Altimeter Pressure
83% 29.89" Hg 1012 hPa